Terminal Aerodrome Forecast
Issued by NWS

Home | Current Version | Previous Version | Text Only | Print | Product List | Glossary On
Versions: 1 2 3 4 5 6 7 8 9 10 11 12 13
000
FTUS43 KICT 142342
TAFSLN
TAF
KSLN 142342Z 1500/1524 34022G26KT P6SM SCT030 BKN100
     FM150300 33026G35KT P6SM SCT025 BKN080
     FM150600 34022G30KT P6SM SKC
     FM150900 33013KT P6SM SKC=

USA.gov is the U.S. government's official web portal to all federal, state and local government web resources and services.